createdAt,value
2019-04-22T00:00:01.032Z,90.30
2019-04-22T00:02:55.795Z,90.60
2019-04-22T00:06:01.107Z,90.50
2019-04-22T00:08:55.886Z,90.60
2019-04-22T00:11:46.686Z,90.90
2019-04-22T00:14:28.074Z,91.10
2019-04-22T00:17:30.398Z,91.20
2019-04-22T00:20:14.468Z,91.40
2019-04-22T00:23:09.826Z,91.50
2019-04-22T00:25:57.147Z,91.50
2019-04-22T00:28:43.843Z,91.40
2019-04-22T00:31:40.667Z,91.30
2019-04-22T00:34:34.147Z,91.50
2019-04-22T00:37:28.653Z,91.80
2019-04-22T00:40:19.762Z,91.40
2019-04-22T00:43:13.830Z,91.50
2019-04-22T00:45:57.859Z,91.60
2019-04-22T00:49:05.806Z,92.00
2019-04-22T00:51:44.707Z,92.10
2019-04-22T00:54:30.986Z,92.20
2019-04-22T00:57:15.680Z,92.80
2019-04-22T01:00:05.444Z,92.70
2019-04-22T01:03:01.626Z,93.00
2019-04-22T01:05:51.399Z,93.20
2019-04-22T01:08:45.221Z,93.30
2019-04-22T01:11:29.099Z,93.20
2019-04-22T01:14:13.110Z,92.80
2019-04-22T01:17:09.317Z,92.60
2019-04-22T01:19:58.621Z,92.60
2019-04-22T01:22:43.854Z,92.60
2019-04-22T01:25:29.458Z,92.60
2019-04-22T01:28:18.048Z,92.80
2019-04-22T01:31:01.981Z,93.20
2019-04-22T01:33:48.208Z,93.00
2019-04-22T01:36:55.589Z,93.30
2019-04-22T01:39:49.908Z,93.30
2019-04-22T01:42:43.243Z,93.40
2019-04-22T01:45:26.448Z,93.50
2019-04-22T01:48:20.609Z,93.50
2019-04-22T01:51:00.895Z,93.90
2019-04-22T01:53:58.446Z,93.60
2019-04-22T01:56:51.350Z,93.60
2019-04-22T01:59:25.887Z,93.90
2019-04-22T02:02:28.035Z,94.00
2019-04-22T02:08:04.389Z,94.30
2019-04-22T02:10:54.947Z,94.20
2019-04-22T02:13:43.045Z,94.20
2019-04-22T02:16:34.289Z,94.50
2019-04-22T02:19:37.171Z,94.50
2019-04-22T02:22:17.659Z,94.50
2019-04-22T02:25:09.392Z,94.50
2019-04-22T02:27:54.559Z,94.80
2019-04-22T02:31:04.975Z,95.30
2019-04-22T02:34:01.251Z,95.80
2019-04-22T02:39:17.588Z,95.10
2019-04-22T02:42:10.627Z,95.10
2019-04-22T02:47:54.130Z,95.20
2019-04-22T02:50:43.432Z,95.20
2019-04-22T02:54:02.631Z,95.40
2019-04-22T03:04:53.455Z,95.70
2019-04-22T03:07:55.966Z,95.80
2019-04-22T03:13:46.967Z,95.60
2019-04-22T03:16:33.230Z,95.50
2019-04-22T03:21:54.450Z,95.70
2019-04-22T03:27:37.249Z,96.00
2019-04-22T03:33:29.378Z,95.90
2019-04-22T03:36:25.949Z,95.90
2019-04-22T03:41:57.324Z,95.70
2019-04-22T03:50:20.650Z,96.20
2019-04-22T03:53:09.028Z,96.20
2019-04-22T03:56:10.793Z,96.40
2019-04-22T03:58:47.912Z,96.20
2019-04-22T04:01:59.350Z,96.30
2019-04-22T04:04:32.895Z,96.30
2019-04-22T04:07:32.437Z,96.50
2019-04-22T04:10:15.120Z,96.90
2019-04-22T04:12:59.925Z,97.10
2019-04-22T04:15:38.769Z,97.30
2019-04-22T04:18:39.220Z,97.50
2019-04-22T04:27:39.881Z,96.40
2019-04-22T04:30:05.561Z,96.50
2019-04-22T04:32:52.637Z,96.80
2019-04-22T04:38:20.794Z,96.70
2019-04-22T04:41:23.098Z,96.80
2019-04-22T04:46:58.484Z,97.10
2019-04-22T04:49:54.557Z,97.30
2019-04-22T04:58:36.875Z,97.20
2019-04-22T05:01:08.134Z,97.00
2019-04-22T05:09:26.033Z,97.10
2019-04-22T05:15:11.723Z,96.90
2019-04-22T05:17:58.129Z,97.20
2019-04-22T05:21:02.916Z,97.20
2019-04-22T05:23:39.433Z,97.50
2019-04-22T05:26:31.308Z,97.10
2019-04-22T05:29:11.431Z,97.20
2019-04-22T05:32:01.444Z,97.20
2019-04-22T05:35:12.086Z,97.40
2019-04-22T05:37:41.575Z,97.30
2019-04-22T05:43:21.497Z,97.00
2019-04-22T05:46:09.492Z,96.90
2019-04-22T05:49:03.252Z,96.70
2019-04-22T05:52:05.223Z,96.40
2019-04-22T05:54:38.734Z,96.30
2019-04-22T05:57:26.613Z,96.10
2019-04-22T06:00:22.428Z,95.80
2019-04-22T06:03:20.761Z,95.60
2019-04-22T06:05:58.398Z,95.40
2019-04-22T06:08:51.252Z,95.10
2019-04-22T06:11:36.219Z,94.60
2019-04-22T06:14:34.276Z,94.30
2019-04-22T06:17:25.574Z,93.90
2019-04-22T06:20:15.373Z,92.90
2019-04-22T06:23:13.040Z,92.50
2019-04-22T06:26:21.965Z,92.10
2019-04-22T06:28:48.231Z,91.60
2019-04-22T06:32:03.416Z,91.50
2019-04-22T06:40:16.005Z,90.60
2019-04-22T06:43:03.162Z,89.80
2019-04-22T06:45:43.840Z,88.50
2019-04-22T06:48:36.176Z,88.30
2019-04-22T06:51:33.062Z,87.90
2019-04-22T06:54:23.440Z,87.40
2019-04-22T06:57:25.547Z,86.50
2019-04-22T07:00:00.353Z,87.10
2019-04-22T07:03:10.203Z,84.80
2019-04-22T07:05:41.342Z,84.20
2019-04-22T07:09:02.374Z,84.40
2019-04-22T07:11:12.474Z,82.60
2019-04-22T07:14:04.218Z,81.60
2019-04-22T07:17:00.876Z,81.30
2019-04-22T07:19:42.330Z,81.00
2019-04-22T07:22:38.357Z,80.30
2019-04-22T07:25:24.980Z,78.50
2019-04-22T07:28:15.658Z,78.80
2019-04-22T07:31:10.392Z,77.70
2019-04-22T07:34:03.738Z,77.30
2019-04-22T07:39:44.239Z,76.50
2019-04-22T07:42:34.743Z,74.30
2019-04-22T07:45:17.829Z,74.70
2019-04-22T07:48:22.561Z,73.00
2019-04-22T07:51:13.547Z,71.30
2019-04-22T07:53:53.994Z,70.50
2019-04-22T07:56:36.717Z,68.90
2019-04-22T07:59:30.705Z,69.10
2019-04-22T08:02:26.206Z,67.70
2019-04-22T08:05:28.541Z,64.20
2019-04-22T08:08:11.149Z,63.60
2019-04-22T08:10:48.468Z,62.50
2019-04-22T08:13:34.289Z,60.40
2019-04-22T08:16:26.332Z,59.00
2019-04-22T08:19:22.798Z,58.00
2019-04-22T08:22:23.898Z,56.50
2019-04-22T08:27:54.997Z,57.10
2019-04-22T08:30:41.417Z,56.60
2019-04-22T08:33:29.517Z,55.70
2019-04-22T08:36:18.111Z,55.30
2019-04-22T08:39:09.442Z,55.80
2019-04-22T08:41:57.413Z,56.00
2019-04-22T08:47:44.877Z,56.10
2019-04-22T08:50:26.746Z,55.10
2019-04-22T08:53:15.646Z,54.60
2019-04-22T08:56:20.159Z,55.10
2019-04-22T08:58:57.271Z,54.70
2019-04-22T09:01:37.664Z,54.90
2019-04-22T09:04:31.157Z,54.80
2019-04-22T09:10:15.166Z,52.70
2019-04-22T09:15:48.797Z,54.20
2019-04-22T09:18:45.896Z,52.40
2019-04-22T09:21:36.143Z,52.60
2019-04-22T09:24:23.289Z,51.90
2019-04-22T09:27:23.355Z,51.20
2019-04-22T09:29:59.685Z,51.70
2019-04-22T09:32:54.231Z,51.30
2019-04-22T09:35:45.368Z,50.40
2019-04-22T09:38:37.801Z,50.00
2019-04-22T09:41:25.000Z,49.40
2019-04-22T09:44:07.849Z,50.50
2019-04-22T09:46:59.944Z,50.90
2019-04-22T09:49:56.708Z,49.30
2019-04-22T09:52:46.005Z,49.50
2019-04-22T09:55:28.470Z,48.80
2019-04-22T09:58:26.545Z,48.70
2019-04-22T10:01:27.896Z,48.80
2019-04-22T10:04:00.978Z,47.50
2019-04-22T10:06:45.755Z,47.70
2019-04-22T10:10:03.474Z,48.70
2019-04-22T10:12:36.918Z,48.60
2019-04-22T10:15:23.041Z,50.40
2019-04-22T10:18:14.682Z,48.60
2019-04-22T10:21:02.104Z,47.10
2019-04-22T10:23:54.692Z,47.10
2019-04-22T10:26:46.900Z,49.10
2019-04-22T10:29:38.620Z,48.60
2019-04-22T10:32:20.592Z,46.90
2019-04-22T10:35:17.127Z,47.90
2019-04-22T10:38:02.160Z,48.50
2019-04-22T10:40:52.562Z,48.30
2019-04-22T10:43:41.239Z,47.70
2019-04-22T10:46:34.004Z,48.00
2019-04-22T10:49:22.655Z,47.70
2019-04-22T10:52:10.861Z,48.90
2019-04-22T10:54:59.160Z,47.20
2019-04-22T10:57:48.628Z,46.90
2019-04-22T11:00:37.659Z,46.30
2019-04-22T11:03:28.432Z,47.00
2019-04-22T11:06:17.160Z,46.20
2019-04-22T11:09:08.421Z,46.30
2019-04-22T11:12:04.396Z,45.90
2019-04-22T11:14:47.678Z,45.20
2019-04-22T11:17:37.668Z,44.60
2019-04-22T11:20:26.374Z,43.90
2019-04-22T11:23:18.640Z,43.30
2019-04-22T11:26:08.168Z,43.70
2019-04-22T11:28:56.066Z,43.00
2019-04-22T11:31:48.252Z,43.80
2019-04-22T11:34:37.600Z,43.60
2019-04-22T11:37:25.518Z,43.20
2019-04-22T11:40:22.264Z,43.60
2019-04-22T11:43:05.797Z,44.70
2019-04-22T11:45:55.670Z,44.30
2019-04-22T11:48:43.335Z,44.50
2019-04-22T11:51:31.953Z,44.60
2019-04-22T11:54:21.046Z,45.30
2019-04-22T11:57:10.659Z,43.40
2019-04-22T12:00:00.895Z,45.10
2019-04-22T12:02:49.383Z,44.90
2019-04-22T12:05:37.697Z,44.40
2019-04-22T12:08:26.930Z,43.50
2019-04-22T12:11:16.588Z,43.90
2019-04-22T12:14:06.690Z,44.50
2019-04-22T12:16:55.407Z,44.30
2019-04-22T12:19:46.389Z,44.20
2019-04-22T12:22:35.840Z,44.00
2019-04-22T12:25:34.735Z,43.00
2019-04-22T12:28:21.267Z,43.10
2019-04-22T12:31:09.639Z,43.10
2019-04-22T12:33:59.198Z,44.20
2019-04-22T12:36:48.757Z,43.90
2019-04-22T12:39:39.244Z,44.00
2019-04-22T12:42:31.273Z,43.40
2019-04-22T12:45:20.492Z,43.80
2019-04-22T12:48:10.143Z,42.90
2019-04-22T12:50:58.673Z,42.90
2019-04-22T12:53:46.945Z,43.30
2019-04-22T12:56:35.506Z,42.90
2019-04-22T12:59:23.752Z,43.10
2019-04-22T13:02:13.378Z,42.00
2019-04-22T13:05:01.584Z,42.50
2019-04-22T13:07:49.874Z,42.40
2019-04-22T13:10:47.090Z,42.40
2019-04-22T13:13:28.799Z,42.60
2019-04-22T13:16:17.502Z,42.20
2019-04-22T13:19:11.317Z,42.50
2019-04-22T13:21:56.605Z,41.30
2019-04-22T13:24:45.741Z,40.90
2019-04-22T13:27:35.137Z,41.30
2019-04-22T13:30:23.527Z,41.80
2019-04-22T13:33:12.635Z,42.30
2019-04-22T13:36:01.690Z,43.00
2019-04-22T13:38:51.284Z,43.00
2019-04-22T13:41:46.407Z,43.10
2019-04-22T13:44:31.424Z,43.00
2019-04-22T13:47:34.740Z,42.90
2019-04-22T13:51:03.901Z,42.40
2019-04-22T13:53:45.066Z,42.70
2019-04-22T13:56:16.904Z,43.40
2019-04-22T13:58:57.803Z,42.00
2019-04-22T14:01:54.643Z,43.10
2019-04-22T14:04:43.789Z,42.10
2019-04-22T14:07:32.807Z,41.30
2019-04-22T14:10:22.701Z,41.40
2019-04-22T14:13:12.139Z,41.70
2019-04-22T14:16:01.345Z,41.50
2019-04-22T14:18:49.862Z,41.60
2019-04-22T14:21:46.983Z,40.90
2019-04-22T14:24:34.535Z,41.00
2019-04-22T14:27:34.681Z,40.90
2019-04-22T14:30:14.869Z,41.40
2019-04-22T14:33:04.811Z,40.90
2019-04-22T14:35:53.159Z,40.40
2019-04-22T14:38:42.000Z,40.40
2019-04-22T14:41:41.514Z,40.10
2019-04-22T14:47:31.628Z,40.10
2019-04-22T14:50:27.030Z,40.30
2019-04-22T14:53:07.827Z,40.90
2019-04-22T14:55:40.008Z,39.50
2019-04-22T14:58:28.799Z,39.30
2019-04-22T15:01:18.980Z,39.60
2019-04-22T15:04:08.856Z,39.50
2019-04-22T15:06:59.084Z,39.60
2019-04-22T15:09:47.994Z,38.80
2019-04-22T15:12:44.556Z,39.20
2019-04-22T15:15:52.892Z,39.40
2019-04-22T15:18:49.450Z,39.70
2019-04-22T15:21:38.660Z,39.50
2019-04-22T15:24:27.630Z,39.00
2019-04-22T15:27:18.444Z,39.00
2019-04-22T15:30:07.636Z,39.30
2019-04-22T15:32:57.096Z,39.80
2019-04-22T15:35:47.247Z,39.50
2019-04-22T15:38:36.511Z,39.60
2019-04-22T15:41:28.695Z,40.00
2019-04-22T15:44:17.737Z,40.30
2019-04-22T15:47:07.017Z,40.40
2019-04-22T15:49:56.169Z,40.40
2019-04-22T15:52:49.669Z,40.80
2019-04-22T15:55:36.871Z,40.90
2019-04-22T15:58:25.828Z,41.20
2019-04-22T16:01:21.710Z,40.00
2019-04-22T16:04:04.891Z,40.40
2019-04-22T16:06:54.749Z,40.50
2019-04-22T16:09:43.509Z,40.50
2019-04-22T16:12:39.319Z,40.00
2019-04-22T16:15:22.393Z,40.60
2019-04-22T16:18:12.986Z,40.80
2019-04-22T16:21:04.909Z,40.90
2019-04-22T16:24:18.193Z,41.00
2019-04-22T16:27:16.564Z,41.20
2019-04-22T16:30:07.514Z,41.10
2019-04-22T16:33:01.625Z,40.40
2019-04-22T16:35:50.867Z,40.20
2019-04-22T16:38:40.615Z,39.70
2019-04-22T16:41:28.984Z,39.90
2019-04-22T16:44:18.637Z,39.80
2019-04-22T16:47:09.918Z,39.90
2019-04-22T16:49:59.491Z,39.00
2019-04-22T16:52:48.218Z,39.00
2019-04-22T16:55:36.996Z,38.50
2019-04-22T16:58:25.236Z,38.20
2019-04-22T17:01:52.542Z,37.90
2019-04-22T17:04:50.833Z,37.40
2019-04-22T17:07:42.475Z,37.20
2019-04-22T17:10:31.486Z,37.70
2019-04-22T17:13:25.370Z,38.50
2019-04-22T17:16:13.907Z,38.20
2019-04-22T17:19:02.632Z,38.80
2019-04-22T17:21:50.819Z,39.20
2019-04-22T17:24:39.643Z,39.90
2019-04-22T17:27:28.787Z,39.80
2019-04-22T17:30:18.093Z,40.00
2019-04-22T17:33:06.513Z,40.80
2019-04-22T17:35:57.041Z,41.50
2019-04-22T17:38:55.092Z,42.30
2019-04-22T17:41:55.747Z,43.60
2019-04-22T17:44:58.849Z,43.70
2019-04-22T17:47:39.700Z,44.60
2019-04-22T17:50:37.917Z,45.10
2019-04-22T17:56:24.520Z,46.30
2019-04-22T17:59:02.220Z,46.90
2019-04-22T18:01:52.322Z,47.40
2019-04-22T18:04:29.092Z,47.90
2019-04-22T18:07:45.764Z,48.40
2019-04-22T18:13:23.831Z,49.10
2019-04-22T18:16:07.086Z,49.70
2019-04-22T18:18:55.814Z,49.90
2019-04-22T18:21:42.318Z,50.30
2019-04-22T18:24:21.949Z,50.30
2019-04-22T18:27:36.016Z,50.60
2019-04-22T18:30:11.611Z,50.80
2019-04-22T18:33:02.805Z,51.30
2019-04-22T18:35:51.554Z,51.20
2019-04-22T18:38:52.877Z,51.40
2019-04-22T18:41:30.417Z,51.60
2019-04-22T18:44:22.609Z,51.70
2019-04-22T18:47:10.236Z,52.00
2019-04-22T18:49:55.432Z,52.00
2019-04-22T18:53:16.090Z,52.20
2019-04-22T18:56:02.068Z,52.30
2019-04-22T18:58:47.557Z,52.60
2019-04-22T19:01:25.676Z,52.70
2019-04-22T19:04:24.660Z,52.80
2019-04-22T19:07:35.273Z,52.80
2019-04-22T19:10:30.791Z,53.10
2019-04-22T19:13:34.620Z,53.20
2019-04-22T19:16:17.212Z,53.40
2019-04-22T19:18:46.054Z,53.40
2019-04-22T19:21:39.370Z,53.50
2019-04-22T19:24:22.920Z,53.70
2019-04-22T19:27:15.582Z,53.90
2019-04-22T19:30:10.495Z,54.10
2019-04-22T19:33:02.890Z,54.30
2019-04-22T19:35:43.528Z,54.40
2019-04-22T19:38:28.650Z,54.60
2019-04-22T19:41:35.483Z,54.80
2019-04-22T19:44:20.175Z,54.80
2019-04-22T19:47:26.825Z,55.10
2019-04-22T19:50:09.397Z,55.30
2019-04-22T19:52:43.428Z,55.40
2019-04-22T19:55:39.045Z,55.50
2019-04-22T19:58:20.110Z,55.80
2019-04-22T20:01:31.807Z,55.90
2019-04-22T20:04:46.245Z,56.10
2019-04-22T20:07:40.587Z,56.40
2019-04-22T20:10:36.982Z,56.60
2019-04-22T20:13:31.102Z,56.60
2019-04-22T20:16:03.417Z,56.90
2019-04-22T20:19:06.958Z,57.10
2019-04-22T20:21:53.434Z,57.20
2019-04-22T20:24:28.177Z,57.30
2019-04-22T20:27:40.531Z,57.70
2019-04-22T20:30:23.549Z,57.70
2019-04-22T20:33:12.001Z,57.90
2019-04-22T20:36:12.826Z,58.10
2019-04-22T20:38:50.584Z,58.30
2019-04-22T20:41:36.565Z,58.40
2019-04-22T20:44:37.828Z,58.80
2019-04-22T20:47:19.207Z,58.90
2019-04-22T20:50:15.709Z,59.20
2019-04-22T20:53:06.918Z,59.60
2019-04-22T20:55:52.424Z,59.70
2019-04-22T20:58:42.219Z,59.90
2019-04-22T21:01:28.568Z,60.10
2019-04-22T21:04:09.034Z,60.50
2019-04-22T21:07:05.082Z,60.60
2019-04-22T21:09:59.371Z,60.70
2019-04-22T21:12:40.001Z,61.20
2019-04-22T21:15:44.417Z,61.50
2019-04-22T21:18:24.769Z,61.80
2019-04-22T21:21:19.937Z,61.90
2019-04-22T21:23:59.420Z,62.10
2019-04-22T21:26:58.439Z,62.30
2019-04-22T21:29:37.598Z,62.60
2019-04-22T21:32:34.213Z,62.80
2019-04-22T21:35:40.450Z,62.90
2019-04-22T21:38:25.239Z,63.00
2019-04-22T21:41:08.496Z,63.30
2019-04-22T21:44:01.004Z,63.70
2019-04-22T21:47:01.003Z,63.80
2019-04-22T21:49:45.888Z,64.10
2019-04-22T21:52:35.596Z,64.60
2019-04-22T21:55:24.164Z,65.00
2019-04-22T21:58:44.651Z,65.20
2019-04-22T22:01:47.481Z,65.50
2019-04-22T22:04:27.771Z,65.90
2019-04-22T22:07:05.668Z,66.10
2019-04-22T22:10:08.959Z,66.20
2019-04-22T22:13:03.368Z,66.40
2019-04-22T22:15:47.611Z,67.00
2019-04-22T22:18:30.024Z,66.90
2019-04-22T22:21:42.878Z,67.30
2019-04-22T22:24:18.512Z,67.60
2019-04-22T22:27:10.378Z,67.90
2019-04-22T22:30:14.943Z,68.20
2019-04-22T22:32:47.793Z,68.50
2019-04-22T22:35:36.115Z,68.50
2019-04-22T22:38:24.035Z,68.80
2019-04-22T22:40:54.087Z,68.40
2019-04-22T22:43:48.645Z,69.00
2019-04-22T22:46:44.158Z,68.90
2019-04-22T22:49:50.269Z,69.40
2019-04-22T22:55:21.743Z,69.70
2019-04-22T22:58:17.677Z,70.30
2019-04-22T23:01:02.155Z,70.80
2019-04-22T23:04:02.595Z,70.80
2019-04-22T23:06:46.796Z,70.90
2019-04-22T23:09:30.686Z,71.00
2019-04-22T23:15:08.876Z,72.00
2019-04-22T23:17:43.665Z,72.70
2019-04-22T23:20:37.582Z,72.90
2019-04-22T23:23:39.475Z,74.20
2019-04-22T23:26:35.983Z,74.20
2019-04-22T23:29:34.327Z,74.60
2019-04-22T23:32:25.884Z,74.80
2019-04-22T23:35:33.760Z,75.10
2019-04-22T23:38:24.134Z,75.80
2019-04-22T23:44:25.327Z,76.70
2019-04-22T23:47:26.065Z,77.10
2019-04-22T23:50:29.445Z,77.50
2019-04-22T23:54:00.920Z,78.10
2019-04-22T23:56:32.242Z,78.30
2019-04-22T23:59:38.294Z,78.80
